LXP247 SCEL-SCJO
Flight info
| Callsign | LXP247 |
|---|---|
| Flight time | N/A |
| Altitude | 33000 |
| Route | ANGOD6C ANGOD UQ803 ERUKA ERUKA3C |
| Aircraft | A320/M-SDE3FGHIRWY/LB1 |
Departure
| Time | 2026-05-06 20:42 |
|---|---|
| Airport | Comodoro Arturo Merino Benítez International Airport (SCEL) |
Arrival
| Time | N/A |
|---|---|
| Airport | Cañal Bajo Carlos Hott Siebert Airport (SCJO) |
| Time | Latitude | Longitude | Altitude | Speed | Heading |
|---|---|---|---|---|---|
| 2026-05-06 20:17 | -33.39591 | -70.79293 | 1564 ft | 0 kts | 177° |
| 2026-05-06 20:26 | -33.39579 | -70.79294 | 1564 ft | 4 kts | 178° |
| 2026-05-06 20:26 | -33.39552 | -70.79295 | 1564 ft | 4 kts | 178° |
| 2026-05-06 20:26 | -33.39529 | -70.79297 | 1564 ft | 4 kts | 183° |
| 2026-05-06 20:26 | -33.39509 | -70.79287 | 1564 ft | 4 kts | 246° |
| 2026-05-06 20:27 | -33.39503 | -70.79258 | 1564 ft | 2 kts | 267° |
| 2026-05-06 20:27 | -33.39503 | -70.79256 | 1564 ft | 0 kts | 267° |
| 2026-05-06 20:30 | -33.39504 | -70.79272 | 1564 ft | 5 kts | 267° |
| 2026-05-06 20:30 | -33.39506 | -70.79323 | 1564 ft | 3 kts | 266° |
| 2026-05-06 20:31 | -33.39509 | -70.79367 | 1564 ft | 11 kts | 266° |
| 2026-05-06 20:31 | -33.39512 | -70.79449 | 1564 ft | 9 kts | 268° |
| 2026-05-06 20:31 | -33.39514 | -70.79510 | 1564 ft | 6 kts | 268° |
| 2026-05-06 20:32 | -33.39512 | -70.79557 | 1564 ft | 7 kts | 287° |
| 2026-05-06 20:32 | -33.39445 | -70.79584 | 1564 ft | 14 kts | 357° |
| 2026-05-06 20:32 | -33.39358 | -70.79596 | 1564 ft | 11 kts | 333° |
| 2026-05-06 20:32 | -33.39336 | -70.79671 | 1564 ft | 9 kts | 268° |
| 2026-05-06 20:33 | -33.39338 | -70.79717 | 1564 ft | 8 kts | 267° |
| 2026-05-06 20:33 | -33.39340 | -70.79771 | 1564 ft | 6 kts | 268° |
| 2026-05-06 20:33 | -33.39341 | -70.79823 | 1565 ft | 7 kts | 268° |
| 2026-05-06 20:33 | -33.39343 | -70.79886 | 1565 ft | 8 kts | 269° |
| 2026-05-06 20:34 | -33.39343 | -70.79956 | 1565 ft | 8 kts | 273° |
| 2026-05-06 20:34 | -33.39318 | -70.80018 | 1565 ft | 8 kts | 309° |
| 2026-05-06 20:34 | -33.39272 | -70.80055 | 1566 ft | 8 kts | 343° |
| 2026-05-06 20:34 | -33.39193 | -70.80062 | 1566 ft | 14 kts | 357° |
| 2026-05-06 20:35 | -33.39088 | -70.80070 | 1566 ft | 14 kts | 356° |
| 2026-05-06 20:35 | -33.38999 | -70.80075 | 1567 ft | 11 kts | 358° |
| 2026-05-06 20:35 | -33.38915 | -70.80079 | 1567 ft | 13 kts | 357° |
| 2026-05-06 20:35 | -33.38815 | -70.80084 | 1567 ft | 16 kts | 358° |
| 2026-05-06 20:36 | -33.38706 | -70.80090 | 1567 ft | 15 kts | 357° |
| 2026-05-06 20:36 | -33.38612 | -70.80095 | 1567 ft | 12 kts | 358° |
| 2026-05-06 20:36 | -33.38531 | -70.80099 | 1567 ft | 13 kts | 358° |
| 2026-05-06 20:36 | -33.38449 | -70.80103 | 1567 ft | 11 kts | 358° |
| 2026-05-06 20:37 | -33.38370 | -70.80107 | 1566 ft | 13 kts | 357° |
| 2026-05-06 20:37 | -33.38264 | -70.80113 | 1566 ft | 17 kts | 357° |
| 2026-05-06 20:37 | -33.38135 | -70.80119 | 1566 ft | 20 kts | 358° |
| 2026-05-06 20:37 | -33.37988 | -70.80127 | 1566 ft | 22 kts | 358° |
| 2026-05-06 20:38 | -33.37833 | -70.80135 | 1566 ft | 21 kts | 357° |
| 2026-05-06 20:38 | -33.37699 | -70.80142 | 1566 ft | 18 kts | 358° |
| 2026-05-06 20:38 | -33.37589 | -70.80148 | 1566 ft | 14 kts | 357° |
| 2026-05-06 20:38 | -33.37502 | -70.80152 | 1566 ft | 11 kts | 357° |
| 2026-05-06 20:39 | -33.37425 | -70.80156 | 1567 ft | 11 kts | 358° |
| 2026-05-06 20:39 | -33.37350 | -70.80161 | 1567 ft | 11 kts | 357° |
| 2026-05-06 20:39 | -33.37269 | -70.80165 | 1567 ft | 13 kts | 358° |
| 2026-05-06 20:39 | -33.37169 | -70.80173 | 1567 ft | 14 kts | 346° |
| 2026-05-06 20:40 | -33.37111 | -70.80235 | 1569 ft | 9 kts | 295° |
| 2026-05-06 20:40 | -33.37104 | -70.80279 | 1571 ft | 3 kts | 271° |
| 2026-05-06 20:40 | -33.37117 | -70.80329 | 1574 ft | 9 kts | 240° |
| 2026-05-06 20:40 | -33.37184 | -70.80373 | 1573 ft | 12 kts | 184° |
| 2026-05-06 20:41 | -33.37331 | -70.80368 | 1573 ft | 44 kts | 177° |
| 2026-05-06 20:41 | -33.37823 | -70.80339 | 1573 ft | 96 kts | 178° |
| 2026-05-06 20:41 | -33.38617 | -70.80298 | 1574 ft | 134 kts | 177° |
| 2026-05-06 20:41 | -33.39681 | -70.80241 | 1620 ft | 165 kts | 174° |
| 2026-05-06 20:42 | -33.40819 | -70.80176 | 2152 ft | 163 kts | 176° |
| 2026-05-06 20:42 | -33.41971 | -70.80101 | 2621 ft | 168 kts | 179° |
| 2026-05-06 20:42 | -33.43183 | -70.80017 | 2915 ft | 185 kts | 178° |
| 2026-05-06 20:42 | -33.44555 | -70.79932 | 3094 ft | 208 kts | 179° |
| 2026-05-06 20:43 | -33.46071 | -70.79859 | 3318 ft | 231 kts | 178° |
| 2026-05-06 20:43 | -33.47763 | -70.79791 | 3574 ft | 256 kts | 180° |
| 2026-05-06 20:43 | -33.49600 | -70.79710 | 4180 ft | 268 kts | 180° |
| 2026-05-06 20:43 | -33.51479 | -70.79607 | 4988 ft | 273 kts | 180° |
| 2026-05-06 20:44 | -33.53404 | -70.79501 | 5709 ft | 280 kts | 181° |
| 2026-05-06 20:44 | -33.55360 | -70.79391 | 6542 ft | 282 kts | 181° |
| 2026-05-06 20:44 | -33.57330 | -70.79288 | 7331 ft | 285 kts | 181° |
| 2026-05-06 20:44 | -33.59283 | -70.79307 | 8099 ft | 283 kts | 192° |
| 2026-05-06 20:45 | -33.61192 | -70.79874 | 8815 ft | 286 kts | 200° |
| 2026-05-06 20:45 | -33.63120 | -70.80510 | 9606 ft | 288 kts | 199° |
| 2026-05-06 20:45 | -33.65101 | -70.81133 | 10315 ft | 294 kts | 199° |
| 2026-05-06 20:45 | -33.67127 | -70.81764 | 10603 ft | 316 kts | 199° |
| 2026-05-06 20:46 | -33.69318 | -70.82445 | 10956 ft | 332 kts | 198° |
| 2026-05-06 20:46 | -33.71573 | -70.83139 | 11582 ft | 337 kts | 198° |
| 2026-05-06 20:46 | -33.73857 | -70.83840 | 12305 ft | 340 kts | 199° |
| 2026-05-06 20:46 | -33.76155 | -70.84546 | 13007 ft | 342 kts | 199° |
| 2026-05-06 20:47 | -33.78468 | -70.85262 | 13723 ft | 345 kts | 199° |
| 2026-05-06 20:47 | -33.80795 | -70.85986 | 14371 ft | 347 kts | 199° |
| 2026-05-06 20:47 | -33.83143 | -70.86719 | 14946 ft | 350 kts | 199° |
| 2026-05-06 20:47 | -33.85510 | -70.87459 | 15489 ft | 353 kts | 199° |
| 2026-05-06 20:48 | -33.87891 | -70.88203 | 16087 ft | 354 kts | 199° |
| 2026-05-06 20:48 | -33.90271 | -70.88945 | 16716 ft | 355 kts | 200° |
| 2026-05-06 20:48 | -33.92670 | -70.89696 | 17268 ft | 357 kts | 200° |
| 2026-05-06 20:48 | -33.95084 | -70.90456 | 17784 ft | 360 kts | 200° |
| 2026-05-06 20:49 | -33.97519 | -70.91221 | 18265 ft | 363 kts | 200° |
| 2026-05-06 20:49 | -33.99976 | -70.91991 | 18802 ft | 367 kts | 200° |
| 2026-05-06 20:49 | -34.02456 | -70.92760 | 19317 ft | 370 kts | 200° |
| 2026-05-06 20:49 | -34.04976 | -70.93482 | 19859 ft | 373 kts | 199° |
| 2026-05-06 20:50 | -34.07517 | -70.94167 | 20404 ft | 376 kts | 198° |
| 2026-05-06 20:50 | -34.10085 | -70.94839 | 20930 ft | 379 kts | 199° |
| 2026-05-06 20:50 | -34.12672 | -70.95518 | 21454 ft | 382 kts | 199° |
| 2026-05-06 20:50 | -34.15276 | -70.96210 | 21964 ft | 385 kts | 199° |
| 2026-05-06 20:51 | -34.17894 | -70.96916 | 22484 ft | 387 kts | 200° |
| 2026-05-06 20:51 | -34.20534 | -70.97636 | 22988 ft | 390 kts | 200° |
| 2026-05-06 20:51 | -34.23189 | -70.98361 | 23484 ft | 392 kts | 200° |
| 2026-05-06 20:51 | -34.25860 | -70.99091 | 23928 ft | 395 kts | 200° |
| 2026-05-06 20:52 | -34.28556 | -70.99828 | 24301 ft | 398 kts | 200° |
| 2026-05-06 20:52 | -34.31266 | -71.00569 | 24676 ft | 401 kts | 200° |
| 2026-05-06 20:52 | -34.33995 | -71.01313 | 25055 ft | 403 kts | 200° |
| 2026-05-06 20:52 | -34.36735 | -71.02062 | 25433 ft | 405 kts | 201° |
| 2026-05-06 20:53 | -34.39495 | -71.02817 | 25808 ft | 407 kts | 201° |
| 2026-05-06 20:53 | -34.42262 | -71.03572 | 26163 ft | 409 kts | 201° |
| 2026-05-06 20:53 | -34.45046 | -71.04331 | 26508 ft | 411 kts | 201° |
| 2026-05-06 20:53 | -34.47847 | -71.05095 | 26860 ft | 413 kts | 201° |
| 2026-05-06 20:54 | -34.50653 | -71.05865 | 27250 ft | 415 kts | 201° |
| 2026-05-06 20:54 | -34.53478 | -71.06643 | 27596 ft | 417 kts | 201° |
| 2026-05-06 20:54 | -34.56314 | -71.07424 | 27929 ft | 419 kts | 201° |
| 2026-05-06 20:54 | -34.59133 | -71.08201 | 28265 ft | 421 kts | 202° |
| 2026-05-06 20:55 | -34.61998 | -71.08989 | 28605 ft | 423 kts | 202° |
| 2026-05-06 20:55 | -34.64878 | -71.09782 | 28935 ft | 425 kts | 202° |